Madrid, Spain

7:56 PM CET en Febrero 14, 2016 (GMT +0100)
Madrid - Las Mercedes | | Change Station
CLOSE
Current Station
Estación meteorológica personal
Location: Madrid, COMUNIDAD DE MADRID
Altura: 2037 ft
Estaciones meteorológicas cercanas

Alt 2037 ft 40.44 °N, 3.59 °W | Updated 11 minutes ago

Mostly Cloudy
Muy nublado
42.4 ° F
Sensación térmica 42 ° F
N
0.7
Viento Variable Viento desde NNO
Gusts 9.2 mph

Hoy
Alta -- | Baja -- ° F
--% Posibilidad de precipitaciones
Ayer
Alta -- | Baja -- ° F
Precip. -- pul
Presión 29.68 pul
Visibilidad 6.2 Millas
Nubes Baja 4000 ft
Muy nublado 5500 ft
Vientos helados 42 ° F
Punto de rocío 28 ° F
Humedad 56%
Precipitaciones 0.02 pul
Espesor de la nieve No disponible.
8:09 AM 6:47 PM
Creciente, 44% visible
METAR LEMD 141830Z 35010G22KT 310V030 9999 FEW040 BKN055 06/M01 Q1005 NOSIG
Presión 29.68 pul
Visibilidad 6.2 Millas
Nubes Baja 4000 ft
Muy nublado 5500 ft
Vientos helados 42 ° F
Punto de rocío 28 ° F
Humedad 56%
Precipitaciones 0.02 pul
Espesor de la nieve No disponible.
8:09 AM 6:47 PM
Creciente, 44% visible
METAR LEMD 141830Z 35010G22KT 310V030 9999 FEW040 BKN055 06/M01 Q1005 NOSIG

10-Day Weather Forecast

Almanac

Astronomía

Feb. 14, 2016 Salida Puesta
Hora real
Crepúsculo civil
Crepúsculo náutico
Crepúsculo astronómico
Luna
Horas de luz
Horas de luz
Tomorrow will be .
, % of the Moon is Illuminated

Extremos de hoy

Máximos del país Bajas del país

Community

WunderPhotos

Upload Photos

1,892,870 ¡fotos cargadas!

WunderBlog® & News

Nearby

Calidad del aire

  Calidad del aire Índice AQ Contaminante
Not available.

Grosos de nieve

Estación Profundido Altura

Actividad de terremotos

Ciudad Distance Mag. Tiempo y dato
Magnitud mínima muestra es 2,5.

Temperaturas de aguas costeras

Lugar Temperatura

Stations

Estaciones meteorológicas cercanas

Ubicación de la estación Temp. Vientos helados Punto de rocío Humedad Viento Precip. Alt Actualizado Tipo